Address 0xc0de4410b395c864debceb80a77afb34c2ea1a3a

Txn Hash Method
Block
From
To
Value [Txn Fee]
0x3a9f1bde1eb743ef943d293e6354b08c748b69bf721a2b269113dafb06aa36120x62ffda18174962902023-01-31 7:18:3314 mins ago0xc0de4410b395c864debceb80a77afb34c2ea1a3aOUT 0xb90c0a9008f1bafc12c751ae33e05eb7e00021320 CELO0.0035946684
0x91776b666d012f7a4b56e9b227cb07967ba24b6371844fe5b6ec48409be297f40x62ffda18174962772023-01-31 7:17:2815 mins ago0xc0de4410b395c864debceb80a77afb34c2ea1a3aOUT 0xb90c0a9008f1bafc12c751ae33e05eb7e00021320 CELO0.005103924
0x53a75c4ff68f597889390eb8726707b36093598f1ce8121b7ff0a36a37df0d070x62ffda18174962592023-01-31 7:15:5817 mins ago0xc0de4410b395c864debceb80a77afb34c2ea1a3aOUT 0xb90c0a9008f1bafc12c751ae33e05eb7e00021320 CELO0.0108663975
0x05404cb3f4f33167351eca9460cd790385cd0e912111703dc8c7e9d26cfc4e110x62ffda18174958922023-01-31 6:45:2347 mins ago0xc0de4410b395c864debceb80a77afb34c2ea1a3aOUT 0xb90c0a9008f1bafc12c751ae33e05eb7e00021320 CELO0.010292232154
0x04540c1164bf8f6bb1d38656cdf146ddc012add23331aaed805a6ca6f7a6f4af0x62ffda18174958672023-01-31 6:43:1849 mins ago0xc0de4410b395c864debceb80a77afb34c2ea1a3aOUT 0xb90c0a9008f1bafc12c751ae33e05eb7e00021320 CELO0.003812449441
0xca77b8908a8356b8989878b150249d63acac32bd4895786ca732551a9d32e1e90x62ffda18174957992023-01-31 6:37:3855 mins ago0xc0de4410b395c864debceb80a77afb34c2ea1a3aOUT 0xb90c0a9008f1bafc12c751ae33e05eb7e00021320 CELO0.0114865575
0xa8bf8546f6554a9e7679fd59db03cfefcf44e2cf813e1cd43b135287b2c7acfc0x62ffda18174957802023-01-31 6:36:0357 mins ago0xc0de4410b395c864debceb80a77afb34c2ea1a3aOUT 0xb90c0a9008f1bafc12c751ae33e05eb7e00021320 CELO0.004450218418
0xc6a7b820021cf5d315fa183722e84fd3338e99696c1a14a8a8ab56c45cb7d8610x62ffda18174957792023-01-31 6:35:5857 mins ago0xc0de4410b395c864debceb80a77afb34c2ea1a3aOUT 0xb90c0a9008f1bafc12c751ae33e05eb7e00021320 CELO0.0034059684
0x71344a7c4ef2d1afe141c6117bff41c7d39c0205df7bd62af0c449f1cee39a410x62ffda18174956472023-01-31 6:24:581 hr 8 mins ago0xc0de4410b395c864debceb80a77afb34c2ea1a3aOUT 0xb90c0a9008f1bafc12c751ae33e05eb7e00021320 CELO0.00381277575
0x408f2cd6d05313fc2aab9e34d38e56c8fb38cc2202d593700d8235ac5f972d840x62ffda18174955362023-01-31 6:15:431 hr 17 mins ago0xc0de4410b395c864debceb80a77afb34c2ea1a3aOUT 0xb90c0a9008f1bafc12c751ae33e05eb7e00021320 CELO0.006652977826
0xe5bc57055b7cfc28256f435293f86ca268653a57f57b94a6a4fbe1b8284f129d0x62ffda18174955332023-01-31 6:15:281 hr 17 mins ago0xc0de4410b395c864debceb80a77afb34c2ea1a3aOUT 0xb90c0a9008f1bafc12c751ae33e05eb7e00021320 CELO0.0050425935
0x9b6b60752438a4e1accd2330ce58896b98d8de08f7711575983018861a28ab790x62ffda18174955312023-01-31 6:15:181 hr 17 mins ago0xc0de4410b395c864debceb80a77afb34c2ea1a3aOUT 0xb90c0a9008f1bafc12c751ae33e05eb7e00021320 CELO0.029726705299
0x4879a1fe09d0c79233d778cdd2f19d9627cebd0c7a70203ed34cbaabc3e800b90x62ffda18174955152023-01-31 6:13:581 hr 19 mins ago0xc0de4410b395c864debceb80a77afb34c2ea1a3aOUT 0xb90c0a9008f1bafc12c751ae33e05eb7e00021320 CELO0.0035785365
0x7dfe86acbca67f9f70062b2e5908cc9366f889044fbb5a8078e78453632e24a60x62ffda18174955062023-01-31 6:13:131 hr 20 mins ago0xc0de4410b395c864debceb80a77afb34c2ea1a3aOUT 0xb90c0a9008f1bafc12c751ae33e05eb7e00021320 CELO0.025251129783
0x1b659028be9f9ee96e52bd1f08c294194c99be2737771583501555bd0093fba20x62ffda18174954762023-01-31 6:10:431 hr 22 mins ago0xc0de4410b395c864debceb80a77afb34c2ea1a3aOUT 0xb90c0a9008f1bafc12c751ae33e05eb7e00021320 CELO0.0110475747
0x12b010f0e8382870f657db0395cdce1a516d5a1a9585a850ed825255ebba49870x62ffda18174954712023-01-31 6:10:181 hr 22 mins ago0xc0de4410b395c864debceb80a77afb34c2ea1a3aOUT 0xb90c0a9008f1bafc12c751ae33e05eb7e00021320 CELO0.004596340471
0xdcc719879f6b1665a114e14bd34bad96428c4dba28d724fd658ee363a4990dc40x62ffda18174953982023-01-31 6:04:131 hr 29 mins ago0xc0de4410b395c864debceb80a77afb34c2ea1a3aOUT 0xb90c0a9008f1bafc12c751ae33e05eb7e00021320 CELO0.005915777154
0x77da12a9c7724ee79f410f19597606ae385fc545aced3fdc04c4cc7b5ac14c3c0x62ffda18174953862023-01-31 6:03:131 hr 30 mins ago0xc0de4410b395c864debceb80a77afb34c2ea1a3aOUT 0xb90c0a9008f1bafc12c751ae33e05eb7e00021320 CELO0.022356381542
0xb32191c25624448e9394ead5a31135366a366eb79b6d3e80b7cad1e2ca0c6d9f0x62ffda18174953852023-01-31 6:03:081 hr 30 mins ago0xc0de4410b395c864debceb80a77afb34c2ea1a3aOUT 0xb90c0a9008f1bafc12c751ae33e05eb7e00021320 CELO0.067263076698
0x87d4dbfb6466686827b3de4661eaa1f4fe97cf253397838876e81dbb56a9fe0b0x62ffda18174953542023-01-31 6:00:331 hr 32 mins ago0xc0de4410b395c864debceb80a77afb34c2ea1a3aOUT 0xb90c0a9008f1bafc12c751ae33e05eb7e00021320 CELO0.005060538
0x67e3769c1ec291e6fefb7f7544e47e7efbe165892f42e8db06ad2a6719c057cd0x62ffda18174953522023-01-31 6:00:231 hr 32 mins ago0xc0de4410b395c864debceb80a77afb34c2ea1a3aOUT 0xb90c0a9008f1bafc12c751ae33e05eb7e00021320 CELO0.12387444901
0x38077a897df397cbc324de8a4922911d355e899bc8795d6ddee62d63c2b924490x62ffda18174953462023-01-31 5:59:531 hr 33 mins ago0xc0de4410b395c864debceb80a77afb34c2ea1a3aOUT 0xb90c0a9008f1bafc12c751ae33e05eb7e00021320 CELO0.00740851968
0xb4092af7fab8f875b2f028c3fac94cadcde01871d8b3e0363721a29a537f99980x62ffda18174953252023-01-31 5:58:081 hr 35 mins ago0xc0de4410b395c864debceb80a77afb34c2ea1a3aOUT 0xb90c0a9008f1bafc12c751ae33e05eb7e00021320 CELO0.026095729214
0x380e844dab1b5f1a807a34198f963014d61dcf642299ee452741294aeb5332040x62ffda18174953002023-01-31 5:56:031 hr 37 mins ago0xc0de4410b395c864debceb80a77afb34c2ea1a3aOUT 0xb90c0a9008f1bafc12c751ae33e05eb7e00021320 CELO0.017653741568
0x99ab77106843990ef63816c5ff1dca4d33eab07e97cb3e8b321ed1bcb2ab1fba0x62ffda18174952992023-01-31 5:55:581 hr 37 mins ago0xc0de4410b395c864debceb80a77afb34c2ea1a3aOUT 0xb90c0a9008f1bafc12c751ae33e05eb7e00021320 CELO0.008733843541
[ Download CSV Export 
Parent Txn Hash Block From To Value
Loading

Contract Name:
0

Compiler Version
0

Optimization Enabled:
0

Other Settings:
-NA-
Block Transaction Gas Used Reward
Age Block Fee Address BC Fee Address Voting Power Jailed Incoming
Block Uncle Number Difficulty Gas Used Reward
Loading
Make sure to use the "Vote Down" button for any spammy posts, and the "Vote Up" for interesting conversations.